Aerbrava en el facebook Aerbrava en el twitter Aerbrava Google+ Aerbrava instagram Aerbrava en el youtube Aerbrava tumblr Aerbrava flikr Aerbrava pinterest
Aerbrava in English aerbrava en Español
Escola de Pilots
Telèfon 972234126 972 23 41 26
 
Aerbrava in English aerbrava en Español
Aerbrava - meteorologia

Informació meteorològica aeronàutica

 

En aquest apartat apareix la informació meteorològica aeronàutica que és utilitzada a les pràctiques dels alumnes de l’Escola de Pilots del nostre centre durant la seva formació, pel que pot no ser actual i s’hauria d’utilitzar pel seu propi compte i risc. AERBRAVA no es fa responsable del seu ús.

 

TEMPS ACTUAL

Satèl·lit Meteorològic

sat24.com

Servei Meteorològic de Catalunya

 

LEGE 010500Z 05006KT 9999 FEW015 BKN027 10/09 Q1016
LEGE 010430Z 04006KT 9999 OVC016 10/09 Q1016
LEGE 010400Z 03006KT 360V070 9999 OVC014 10/09 Q1016 RERA
LEGE 010330Z 05007KT 9999 -RA OVC014 10/10 Q1016
LEGE 010300Z 02006KT 340V050 9999 OVC012 10/10 Q1016
LEGE 010230Z 02006KT 350V050 9999 OVC012 10/10 Q1016
LEGE 010200Z 01006KT 9999 OVC012 10/10 Q1016
LEGE 010130Z 01007KT 9999 BKN009 09/09 Q1016
TAF LEGE 010500Z 0106/0206 02010KT 2000 BR BKN010 TX13/0112Z TN08/0206Z   TEMPO 0113/0118 2000 TSRA FEW010CB   TEMPO 0106/0206 SHRA FEW010TCU

Aviation Weather

 
Aerbrava en el facebook Aerbrava en el twitter Aerbrava Google+ Aerbrava instagram Aerbrava en el youtube Aerbrava tumblr Aerbrava flikr Aerbrava pinterest

¡CSS Vàlid!